createdAt,value
2023-03-05T00:00:46.815Z,8.43
2023-03-05T00:02:49.271Z,11.95
2023-03-05T00:04:51.788Z,7.95
2023-03-05T00:06:55.886Z,8.82
2023-03-05T00:08:58.748Z,8.45
2023-03-05T00:11:04.301Z,9.50
2023-03-05T00:13:06.642Z,12.38
2023-03-05T00:15:09.916Z,9.68
2023-03-05T00:17:12.164Z,8.45
2023-03-05T00:19:14.600Z,8.18
2023-03-05T00:21:22.392Z,11.18
2023-03-05T00:23:24.639Z,9.07
2023-03-05T00:25:27.193Z,9.07
2023-03-05T00:27:29.468Z,10.82
2023-03-05T00:29:31.905Z,9.23
2023-03-05T00:31:35.949Z,10.38
2023-03-05T00:33:38.263Z,13.80
2023-03-05T00:35:42.437Z,7.93
2023-03-05T00:37:44.799Z,13.90
2023-03-05T00:39:47.198Z,11.38
2023-03-05T00:41:50.087Z,10.55
2023-03-05T00:43:52.491Z,12.18
2023-03-05T00:45:54.931Z,11.90
2023-03-05T00:47:57.279Z,12.30
2023-03-05T00:50:00.233Z,11.60
2023-03-05T00:52:02.427Z,12.93
2023-03-05T00:54:06.093Z,10.80
2023-03-05T00:56:08.476Z,7.65
2023-03-05T00:58:12.192Z,9.88
2023-03-05T01:00:17.299Z,10.52
2023-03-05T01:02:19.722Z,12.43
2023-03-05T01:04:22.085Z,8.98
2023-03-05T01:06:24.432Z,7.93
2023-03-05T01:08:27.211Z,10.77
2023-03-05T01:10:30.578Z,8.30
2023-03-05T01:12:32.868Z,10.77
2023-03-05T01:14:36.157Z,8.60
2023-03-05T01:16:38.469Z,10.30
2023-03-05T01:18:41.427Z,12.65
2023-03-05T01:20:43.836Z,12.05
2023-03-05T01:22:46.107Z,9.80
2023-03-05T01:24:48.384Z,9.27
2023-03-05T01:26:51.109Z,10.55
2023-03-05T01:28:53.461Z,8.93
2023-03-05T01:30:55.859Z,10.93
2023-03-05T01:32:58.148Z,7.95
2023-03-05T01:35:02.453Z,11.13
2023-03-05T01:37:05.001Z,10.23
2023-03-05T01:39:07.244Z,8.48
2023-03-05T01:41:10.549Z,10.60
2023-03-05T01:43:13.742Z,12.13
2023-03-05T01:45:18.748Z,8.95
2023-03-05T01:47:21.092Z,9.55
2023-03-05T01:49:29.750Z,9.45
2023-03-05T01:51:37.091Z,12.48
2023-03-05T01:53:40.363Z,12.15
2023-03-05T01:55:42.624Z,12.23
2023-03-05T01:57:49.934Z,11.40
2023-03-05T01:59:58.437Z,10.05
2023-03-05T02:02:01.189Z,13.13
2023-03-05T02:04:04.041Z,18.50
2023-03-05T02:06:06.535Z,15.40
2023-03-05T02:08:11.708Z,15.00
2023-03-05T02:10:20.835Z,8.45
2023-03-05T02:12:23.608Z,13.98
2023-03-05T02:14:27.393Z,9.52
2023-03-05T02:16:37.237Z,13.13
2023-03-05T02:18:39.532Z,9.80
2023-03-05T02:20:45.249Z,13.75
2023-03-05T02:22:47.794Z,12.20
2023-03-05T02:24:50.638Z,13.05
2023-03-05T02:26:52.997Z,9.25
2023-03-05T02:29:01.481Z,11.00
2023-03-05T02:31:10.289Z,12.75
2023-03-05T02:33:15.407Z,10.48
2023-03-05T02:35:17.915Z,11.88
2023-03-05T02:37:20.348Z,13.45
2023-03-05T02:39:22.595Z,10.55
2023-03-05T02:41:25.341Z,11.63
2023-03-05T02:43:27.849Z,11.65
2023-03-05T02:45:30.424Z,13.52
2023-03-05T02:47:33.418Z,9.35
2023-03-05T02:49:35.865Z,10.68
2023-03-05T02:51:38.131Z,12.93
2023-03-05T02:53:40.456Z,12.15
2023-03-05T02:55:42.874Z,13.35
2023-03-05T02:57:45.432Z,12.80
2023-03-05T02:59:47.850Z,13.45
2023-03-05T03:01:50.152Z,12.90
2023-03-05T03:03:52.311Z,11.90
2023-03-05T03:05:54.644Z,12.30
2023-03-05T03:07:56.864Z,9.70
2023-03-05T03:09:59.094Z,11.30
2023-03-05T03:12:01.374Z,11.85
2023-03-05T03:14:03.833Z,9.23
2023-03-05T03:16:09.917Z,11.05
2023-03-05T03:18:12.190Z,9.35
2023-03-05T03:20:16.918Z,11.85
2023-03-05T03:22:19.071Z,10.93
2023-03-05T03:24:22.115Z,14.43
2023-03-05T03:26:25.077Z,12.13
2023-03-05T03:28:27.409Z,10.05
2023-03-05T03:30:29.906Z,13.45
2023-03-05T03:32:33.301Z,12.82
2023-03-05T03:34:35.625Z,13.13
2023-03-05T03:36:38.086Z,12.43
2023-03-05T03:38:40.496Z,16.30
2023-03-05T03:40:42.860Z,11.52
2023-03-05T03:42:45.297Z,11.25
2023-03-05T03:44:48.703Z,17.05
2023-03-05T03:46:51.887Z,11.13
2023-03-05T03:48:54.387Z,13.68
2023-03-05T03:50:56.594Z,12.35
2023-03-05T03:52:59.188Z,16.58
2023-03-05T03:55:02.404Z,12.98
2023-03-05T03:57:04.944Z,13.10
2023-03-05T03:59:07.656Z,16.00
2023-03-05T04:01:10.219Z,14.35
2023-03-05T04:03:12.632Z,11.95
2023-03-05T04:05:15.053Z,13.90
2023-03-05T04:07:17.591Z,16.15
2023-03-05T04:09:19.832Z,9.68
2023-03-05T04:11:22.707Z,13.68
2023-03-05T04:13:24.820Z,12.70
2023-03-05T04:15:27.105Z,11.77
2023-03-05T04:17:29.218Z,12.32
2023-03-05T04:19:31.381Z,15.13
2023-03-05T04:21:33.460Z,12.73
2023-03-05T04:23:35.792Z,14.45
2023-03-05T04:25:37.967Z,17.15
2023-03-05T04:27:41.411Z,13.95
2023-03-05T04:29:43.457Z,14.18
2023-03-05T04:31:45.505Z,15.48
2023-03-05T04:33:47.593Z,8.60
2023-03-05T04:35:51.200Z,9.40
2023-03-05T04:37:53.460Z,12.52
2023-03-05T04:39:55.760Z,10.95
2023-03-05T04:41:57.770Z,14.30
2023-03-05T04:43:59.804Z,14.05
2023-03-05T04:46:02.009Z,18.52
2023-03-05T04:48:04.541Z,13.15
2023-03-05T04:50:07.622Z,12.35
2023-03-05T04:52:12.436Z,14.35
2023-03-05T04:54:14.485Z,11.15
2023-03-05T04:56:16.855Z,13.50
2023-03-05T04:58:20.833Z,11.82
2023-03-05T05:00:23.282Z,11.98
2023-03-05T05:02:25.642Z,11.57
2023-03-05T05:04:27.821Z,16.30
2023-03-05T05:06:29.913Z,14.50
2023-03-05T05:08:32.136Z,11.00
2023-03-05T05:10:34.449Z,12.48
2023-03-05T05:12:36.986Z,14.73
2023-03-05T05:14:39.225Z,11.43
2023-03-05T05:16:41.405Z,11.68
2023-03-05T05:18:43.668Z,10.93
2023-03-05T05:20:45.698Z,13.75
2023-03-05T05:22:47.742Z,18.20
2023-03-05T05:24:49.905Z,11.98
2023-03-05T05:26:54.416Z,12.23
2023-03-05T05:28:56.455Z,13.35
2023-03-05T05:30:58.735Z,12.50
2023-03-05T05:33:00.907Z,12.13
2023-03-05T05:35:04.064Z,11.75
2023-03-05T05:37:06.072Z,13.98
2023-03-05T05:39:08.265Z,14.75
2023-03-05T05:41:13.855Z,14.00
2023-03-05T05:43:15.927Z,11.95
2023-03-05T05:45:18.173Z,9.80
2023-03-05T05:47:20.394Z,14.98
2023-03-05T05:49:22.476Z,14.68
2023-03-05T05:51:25.037Z,13.18
2023-03-05T05:53:27.205Z,16.77
2023-03-05T05:55:29.235Z,10.90
2023-03-05T05:57:31.802Z,12.30
2023-03-05T05:59:34.052Z,9.93
2023-03-05T06:01:36.153Z,15.20
2023-03-05T06:03:38.232Z,11.77
2023-03-05T06:05:43.348Z,10.98
2023-03-05T06:07:45.545Z,11.95
2023-03-05T06:09:47.628Z,14.82
2023-03-05T06:11:50.603Z,12.40
2023-03-05T06:13:52.857Z,12.45
2023-03-05T06:15:58.839Z,11.60
2023-03-05T06:18:01.319Z,10.55
2023-03-05T06:20:04.587Z,12.07
2023-03-05T06:22:06.616Z,13.00
2023-03-05T06:24:08.821Z,9.75
2023-03-05T06:26:14.070Z,10.63
2023-03-05T06:28:18.434Z,13.38
2023-03-05T06:30:20.612Z,9.38
2023-03-05T06:32:23.447Z,10.07
2023-03-05T06:34:25.618Z,11.23
2023-03-05T06:36:28.630Z,12.00
2023-03-05T06:38:30.939Z,9.27
2023-03-05T06:40:33.074Z,15.15
2023-03-05T06:42:35.490Z,14.35
2023-03-05T06:44:40.585Z,12.93
2023-03-05T06:46:42.701Z,10.07
2023-03-05T06:48:45.366Z,11.23
2023-03-05T06:50:47.523Z,10.50
2023-03-05T06:52:50.822Z,15.73
2023-03-05T06:54:55.905Z,11.73
2023-03-05T06:56:58.304Z,10.60
2023-03-05T06:59:00.375Z,13.52
2023-03-05T07:01:05.573Z,11.75
2023-03-05T07:03:07.874Z,10.90
2023-03-05T07:05:10.470Z,11.32
2023-03-05T07:07:12.689Z,12.73
2023-03-05T07:09:16.002Z,8.90
2023-03-05T07:11:20.158Z,13.60
2023-03-05T07:13:22.281Z,12.68
2023-03-05T07:15:24.531Z,9.30
2023-03-05T07:17:26.627Z,10.25
2023-03-05T07:19:28.599Z,13.95
2023-03-05T07:21:33.558Z,12.38
2023-03-05T07:23:36.814Z,14.38
2023-03-05T07:25:39.902Z,11.82
2023-03-05T07:27:41.970Z,11.57
2023-03-05T07:29:44.006Z,14.23
2023-03-05T07:31:46.265Z,10.52
2023-03-05T07:33:51.283Z,14.55
2023-03-05T07:35:53.550Z,10.93
2023-03-05T07:37:56.066Z,11.52
2023-03-05T07:39:58.549Z,12.68
2023-03-05T07:42:00.662Z,11.32
2023-03-05T07:44:03.433Z,13.30
2023-03-05T07:46:07.889Z,13.55
2023-03-05T07:48:16.612Z,11.90
2023-03-05T07:50:18.891Z,15.70
2023-03-05T07:52:20.976Z,12.73
2023-03-05T07:54:23.098Z,13.02
2023-03-05T07:56:32.116Z,11.80
2023-03-05T07:58:34.259Z,13.38
2023-03-05T08:00:36.478Z,11.73
2023-03-05T08:02:38.542Z,11.63
2023-03-05T08:04:42.339Z,11.90
2023-03-05T08:06:44.295Z,11.25
2023-03-05T08:08:46.409Z,12.75
2023-03-05T08:10:48.338Z,12.32
2023-03-05T08:12:50.328Z,13.88
2023-03-05T08:14:52.322Z,15.43
2023-03-05T08:16:54.250Z,13.75
2023-03-05T08:18:57.589Z,13.85
2023-03-05T08:20:59.760Z,18.60
2023-03-05T08:23:03.409Z,13.70
2023-03-05T08:25:07.197Z,16.15
2023-03-05T08:27:09.837Z,16.42
2023-03-05T08:29:11.873Z,15.50
2023-03-05T08:31:16.239Z,16.02
2023-03-05T08:33:18.380Z,16.08
2023-03-05T08:35:21.002Z,17.60
2023-03-05T08:37:22.857Z,15.50
2023-03-05T08:39:24.847Z,17.48
2023-03-05T08:41:26.732Z,14.77
2023-03-05T08:43:28.713Z,17.92
2023-03-05T08:45:30.597Z,20.77
2023-03-05T08:47:32.436Z,19.67
2023-03-05T08:49:34.353Z,16.50
2023-03-05T08:51:36.566Z,14.75
2023-03-05T08:53:39.310Z,22.85
2023-03-05T08:55:43.828Z,19.80
2023-03-05T08:57:45.992Z,22.73
2023-03-05T08:59:50.325Z,20.75
2023-03-05T09:01:52.293Z,24.52
2023-03-05T09:03:54.722Z,23.77
2023-03-05T09:06:01.110Z,20.40
2023-03-05T09:08:04.971Z,22.73
2023-03-05T09:10:10.094Z,21.73
2023-03-05T09:12:13.468Z,21.15
2023-03-05T09:14:15.355Z,23.30
2023-03-05T09:16:18.764Z,21.90
2023-03-05T09:18:22.839Z,21.17
2023-03-05T09:20:24.749Z,24.00
2023-03-05T09:22:26.698Z,23.30
2023-03-05T09:24:28.624Z,26.30
2023-03-05T09:26:31.767Z,23.15
2023-03-05T09:28:33.611Z,23.20
2023-03-05T09:30:36.084Z,28.73
2023-03-05T09:32:38.026Z,24.98
2023-03-05T09:34:39.908Z,23.75
2023-03-05T09:36:41.732Z,24.85
2023-03-05T09:38:43.557Z,23.95
2023-03-05T09:40:48.861Z,27.80
2023-03-05T09:42:51.466Z,24.17
2023-03-05T09:44:56.948Z,23.60
2023-03-05T09:47:05.255Z,25.38
2023-03-05T09:49:11.577Z,21.90
2023-03-05T09:51:21.108Z,23.40
2023-03-05T09:53:34.013Z,23.95
2023-03-05T09:55:41.100Z,23.73
2023-03-05T09:57:48.792Z,25.52
2023-03-05T09:59:58.131Z,23.42
2023-03-05T10:02:05.468Z,21.35
2023-03-05T10:04:12.751Z,24.52
2023-03-05T10:06:20.868Z,21.33
2023-03-05T10:08:31.426Z,25.65
2023-03-05T10:10:40.822Z,24.88
2023-03-05T10:12:46.103Z,23.85
2023-03-05T10:14:49.270Z,26.02
2023-03-05T10:16:54.706Z,24.85
2023-03-05T10:19:00.988Z,21.55
2023-03-05T10:21:06.358Z,24.45
2023-03-05T10:23:09.336Z,27.23
2023-03-05T10:25:15.828Z,24.90
2023-03-05T10:27:27.274Z,26.75
2023-03-05T10:29:33.593Z,30.23
2023-03-05T10:31:38.967Z,24.75
2023-03-05T10:33:45.538Z,30.15
2023-03-05T10:35:50.945Z,28.42
2023-03-05T10:37:59.054Z,27.02
2023-03-05T10:40:12.135Z,28.67
2023-03-05T10:42:17.714Z,30.15
2023-03-05T10:44:29.591Z,27.13
2023-03-05T10:46:35.512Z,28.52
2023-03-05T10:48:43.462Z,24.85
2023-03-05T10:50:50.144Z,28.33
2023-03-05T10:53:06.653Z,30.63
2023-03-05T10:55:13.909Z,27.45
2023-03-05T10:57:21.305Z,23.95
2023-03-05T10:59:23.211Z,26.35
2023-03-05T11:01:28.476Z,23.20
2023-03-05T11:03:36.713Z,26.65
2023-03-05T11:05:39.319Z,22.27
2023-03-05T11:07:41.331Z,23.17
2023-03-05T11:09:53.269Z,22.92
2023-03-05T11:12:01.314Z,23.70
2023-03-05T11:14:04.836Z,22.67
2023-03-05T11:16:15.999Z,19.88
2023-03-05T11:18:24.372Z,20.52
2023-03-05T11:20:28.084Z,23.08
2023-03-05T11:22:37.844Z,22.40
2023-03-05T11:24:41.464Z,24.00
2023-03-05T11:26:48.678Z,23.25
2023-03-05T11:28:54.022Z,22.30
2023-03-05T11:31:00.509Z,21.98
2023-03-05T11:33:10.285Z,20.77
2023-03-05T11:35:31.574Z,22.45
2023-03-05T11:37:33.555Z,22.73
2023-03-05T11:39:38.463Z,19.70
2023-03-05T11:41:47.068Z,20.08
2023-03-05T11:43:51.144Z,20.80
2023-03-05T11:46:01.701Z,21.13
2023-03-05T11:48:13.913Z,20.35
2023-03-05T11:50:21.226Z,20.88
2023-03-05T11:52:31.119Z,18.17
2023-03-05T11:54:42.908Z,18.85
2023-03-05T11:56:47.471Z,17.00
2023-03-05T11:58:53.354Z,19.88
2023-03-05T12:00:57.987Z,16.45
2023-03-05T12:03:04.532Z,18.52
2023-03-05T12:05:07.995Z,12.68
2023-03-05T12:07:14.219Z,15.27
2023-03-05T12:09:22.445Z,14.63
2023-03-05T12:11:30.665Z,14.88
2023-03-05T12:13:43.045Z,15.82
2023-03-05T12:15:56.589Z,18.38
2023-03-05T12:18:08.673Z,18.85
2023-03-05T12:20:21.131Z,19.40
2023-03-05T12:22:26.123Z,16.08
2023-03-05T12:24:31.202Z,14.75
2023-03-05T12:26:39.489Z,13.75
2023-03-05T12:28:53.338Z,14.18
2023-03-05T12:31:01.411Z,15.93
2023-03-05T12:33:06.049Z,17.35
2023-03-05T12:35:14.216Z,14.13
2023-03-05T12:37:22.272Z,15.82
2023-03-05T12:39:42.582Z,18.35
2023-03-05T12:41:44.646Z,17.85
2023-03-05T12:43:46.598Z,17.42
2023-03-05T12:45:48.523Z,18.65
2023-03-05T12:47:56.717Z,22.35
2023-03-05T12:50:02.026Z,20.38
2023-03-05T12:52:05.567Z,18.95
2023-03-05T12:54:14.103Z,18.17
2023-03-05T12:56:20.834Z,18.23
2023-03-05T12:58:32.559Z,17.70
2023-03-05T13:00:43.338Z,20.77
2023-03-05T13:02:46.556Z,15.88
2023-03-05T13:04:53.652Z,14.48
2023-03-05T13:07:00.483Z,16.23
2023-03-05T13:09:07.563Z,16.95
2023-03-05T13:11:19.392Z,13.95
2023-03-05T13:13:22.419Z,13.68
2023-03-05T13:15:26.434Z,18.10
2023-03-05T13:17:31.874Z,15.40
2023-03-05T13:19:36.179Z,18.23
2023-03-05T13:21:38.529Z,13.60
2023-03-05T13:23:49.130Z,13.18
2023-03-05T13:25:57.338Z,13.02
2023-03-05T13:28:05.789Z,18.08
2023-03-05T13:30:22.326Z,13.95
2023-03-05T13:32:29.152Z,12.75
2023-03-05T13:34:46.557Z,12.88
2023-03-05T13:36:55.461Z,11.20
2023-03-05T13:38:57.835Z,15.68
2023-03-05T13:41:05.513Z,16.77
2023-03-05T13:43:12.538Z,12.38
2023-03-05T13:45:20.689Z,11.63
2023-03-05T13:47:25.290Z,10.27
2023-03-05T13:49:28.970Z,11.65
2023-03-05T13:51:42.640Z,13.13
2023-03-05T13:53:45.352Z,13.43
2023-03-05T13:55:53.835Z,10.38
2023-03-05T13:57:55.923Z,15.00
2023-03-05T13:59:58.072Z,11.75
2023-03-05T14:02:06.063Z,14.30
2023-03-05T14:04:20.744Z,12.95
2023-03-05T14:06:25.269Z,13.60
2023-03-05T14:08:30.349Z,14.55
2023-03-05T14:10:36.690Z,15.20
2023-03-05T14:12:42.785Z,13.00
2023-03-05T14:14:45.313Z,12.77
2023-03-05T14:16:47.490Z,13.40
2023-03-05T14:18:55.206Z,10.23
2023-03-05T14:21:02.277Z,10.93
2023-03-05T14:23:27.345Z,15.43
2023-03-05T14:25:36.601Z,9.55
2023-03-05T14:27:39.407Z,12.60
2023-03-05T14:29:45.943Z,12.50
2023-03-05T14:31:52.344Z,11.23
2023-03-05T14:33:59.613Z,11.77
2023-03-05T14:36:04.997Z,16.63
2023-03-05T14:38:09.034Z,10.82
2023-03-05T14:40:12.770Z,14.32
2023-03-05T14:42:28.123Z,12.90
2023-03-05T14:44:30.012Z,12.75
2023-03-05T14:46:32.215Z,12.00
2023-03-05T14:48:34.770Z,9.93
2023-03-05T14:50:44.891Z,15.23
2023-03-05T14:52:49.445Z,12.95
2023-03-05T14:54:53.762Z,14.15
2023-03-05T14:56:56.677Z,10.27
2023-03-05T14:58:59.299Z,12.57
2023-03-05T15:01:02.478Z,10.70
2023-03-05T15:03:07.035Z,14.07
2023-03-05T15:05:10.834Z,15.18
2023-03-05T15:07:19.220Z,13.20
2023-03-05T15:09:21.797Z,12.98
2023-03-05T15:11:24.316Z,14.70
2023-03-05T15:13:27.012Z,15.75
2023-03-05T15:15:29.589Z,12.57
2023-03-05T15:17:33.516Z,13.38
2023-03-05T15:19:35.493Z,14.63
2023-03-05T15:21:37.527Z,11.75
2023-03-05T15:23:41.627Z,14.07
2023-03-05T15:25:44.376Z,11.65
2023-03-05T15:27:50.957Z,12.63
2023-03-05T15:29:53.357Z,12.98
2023-03-05T15:31:55.541Z,13.50
2023-03-05T15:33:57.514Z,11.32
2023-03-05T15:36:00.160Z,15.48
2023-03-05T15:38:02.390Z,16.10
2023-03-05T15:40:05.168Z,12.80
2023-03-05T15:42:07.547Z,12.73
2023-03-05T15:44:09.632Z,11.80
2023-03-05T15:46:11.989Z,14.57
2023-03-05T15:48:14.350Z,11.73
2023-03-05T15:50:19.870Z,13.85
2023-03-05T15:52:22.091Z,13.25
2023-03-05T15:54:24.363Z,14.88
2023-03-05T15:56:26.467Z,13.07
2023-03-05T15:58:33.406Z,11.68
2023-03-05T16:00:38.272Z,11.82
2023-03-05T16:02:40.481Z,14.15
2023-03-05T16:04:43.510Z,13.75
2023-03-05T16:06:49.641Z,12.38
2023-03-05T16:08:55.346Z,12.20
2023-03-05T16:10:58.361Z,13.60
2023-03-05T16:13:07.069Z,15.35
2023-03-05T16:15:12.378Z,15.43
2023-03-05T16:17:16.251Z,12.52
2023-03-05T16:19:20.001Z,13.70
2023-03-05T16:21:22.399Z,9.23
2023-03-05T16:23:25.286Z,10.48
2023-03-05T16:25:27.448Z,8.85
2023-03-05T16:27:30.349Z,8.35
2023-03-05T16:29:35.624Z,6.57
2023-03-05T16:31:40.806Z,7.10
2023-03-05T16:33:42.954Z,6.32
2023-03-05T16:35:45.181Z,4.90
2023-03-05T16:37:47.771Z,8.95
2023-03-05T16:39:50.491Z,6.68
2023-03-05T16:41:55.434Z,6.22
2023-03-05T16:43:59.397Z,6.18
2023-03-05T16:46:01.688Z,7.10
2023-03-05T16:48:04.401Z,5.85
2023-03-05T16:50:09.126Z,8.02
2023-03-05T16:52:18.706Z,8.25
2023-03-05T16:54:22.469Z,6.25
2023-03-05T16:56:24.589Z,7.80
2023-03-05T16:58:32.249Z,7.20
2023-03-05T17:00:34.484Z,6.28
2023-03-05T17:02:36.813Z,7.65
2023-03-05T17:04:39.364Z,6.10
2023-03-05T17:06:42.000Z,8.30
2023-03-05T17:08:45.444Z,5.57
2023-03-05T17:10:48.438Z,5.93
2023-03-05T17:12:52.964Z,7.95
2023-03-05T17:14:55.048Z,6.72
2023-03-05T17:16:57.988Z,8.82
2023-03-05T17:19:00.794Z,7.88
2023-03-05T17:21:07.791Z,5.85
2023-03-05T17:23:11.042Z,10.45
2023-03-05T17:25:14.330Z,7.50
2023-03-05T17:27:18.954Z,5.50
2023-03-05T17:29:22.840Z,5.43
2023-03-05T17:31:25.133Z,8.27
2023-03-05T17:33:29.291Z,8.32
2023-03-05T17:35:31.549Z,6.80
2023-03-05T17:37:34.316Z,7.90
2023-03-05T17:39:39.413Z,9.65
2023-03-05T17:41:41.544Z,7.00
2023-03-05T17:43:44.482Z,9.15
2023-03-05T17:45:47.866Z,7.20
2023-03-05T17:47:53.011Z,6.25
2023-03-05T17:49:55.005Z,8.30
2023-03-05T17:51:57.441Z,5.28
2023-03-05T17:53:59.480Z,7.82
2023-03-05T17:56:01.901Z,7.07
2023-03-05T17:58:04.290Z,7.90
2023-03-05T18:00:09.578Z,9.55
2023-03-05T18:02:15.487Z,7.18
2023-03-05T18:04:20.142Z,7.53
2023-03-05T18:06:22.778Z,6.20
2023-03-05T18:08:29.823Z,7.32
2023-03-05T18:10:33.722Z,6.65
2023-03-05T18:12:38.069Z,4.50
2023-03-05T18:14:42.232Z,9.98
2023-03-05T18:16:46.094Z,7.90
2023-03-05T18:18:49.032Z,4.90
2023-03-05T18:20:55.438Z,6.25
2023-03-05T18:23:00.168Z,6.60
2023-03-05T18:25:02.459Z,6.10
2023-03-05T18:27:04.857Z,5.10
2023-03-05T18:29:06.927Z,7.55
2023-03-05T18:31:08.936Z,9.68
2023-03-05T18:33:18.612Z,7.78
2023-03-05T18:35:20.557Z,7.15
2023-03-05T18:37:22.564Z,6.53
2023-03-05T18:39:24.715Z,5.93
2023-03-05T18:41:28.237Z,5.60
2023-03-05T18:43:31.304Z,8.65
2023-03-05T18:45:34.371Z,6.53
2023-03-05T18:47:39.099Z,5.43
2023-03-05T18:49:41.068Z,5.22
2023-03-05T18:51:43.563Z,7.53
2023-03-05T18:53:46.403Z,8.82
2023-03-05T18:55:50.971Z,8.35
2023-03-05T18:57:56.988Z,7.75
2023-03-05T18:59:59.195Z,8.40
2023-03-05T19:02:01.266Z,8.05
2023-03-05T19:04:06.444Z,8.60
2023-03-05T19:06:08.897Z,5.10
2023-03-05T19:08:11.084Z,5.97
2023-03-05T19:10:15.263Z,7.40
2023-03-05T19:12:17.388Z,7.00
2023-03-05T19:14:19.509Z,9.80
2023-03-05T19:16:24.421Z,8.25
2023-03-05T19:18:28.887Z,9.43
2023-03-05T19:20:30.838Z,11.27
2023-03-05T19:22:33.649Z,7.43
2023-03-05T19:24:38.018Z,9.45
2023-03-05T19:26:41.417Z,7.85
2023-03-05T19:28:43.471Z,7.43
2023-03-05T19:30:48.798Z,8.45
2023-03-05T19:32:51.365Z,7.05
2023-03-05T19:34:57.348Z,6.65
2023-03-05T19:36:59.491Z,8.15
2023-03-05T19:39:05.097Z,8.00
2023-03-05T19:41:09.675Z,9.32
2023-03-05T19:43:11.784Z,5.63
2023-03-05T19:45:14.193Z,10.35
2023-03-05T19:47:16.218Z,8.52
2023-03-05T19:49:19.014Z,6.00
2023-03-05T19:51:24.110Z,7.68
2023-03-05T19:53:26.357Z,6.07
2023-03-05T19:55:28.372Z,7.88
2023-03-05T19:57:33.373Z,8.80
2023-03-05T19:59:35.590Z,7.10
2023-03-05T20:01:38.011Z,9.65
2023-03-05T20:03:40.863Z,8.50
2023-03-05T20:05:43.947Z,10.10
2023-03-05T20:07:48.214Z,9.50
2023-03-05T20:09:52.133Z,7.53
2023-03-05T20:11:54.442Z,10.20
2023-03-05T20:13:57.537Z,10.30
2023-03-05T20:16:01.593Z,9.07
2023-03-05T20:18:05.939Z,10.88
2023-03-05T20:20:10.954Z,9.27
2023-03-05T20:22:14.095Z,9.88
2023-03-05T20:24:19.903Z,9.88
2023-03-05T20:26:26.606Z,10.93
2023-03-05T20:28:28.800Z,7.68
2023-03-05T20:30:31.089Z,8.73
2023-03-05T20:32:33.384Z,6.55
2023-03-05T20:34:35.455Z,8.23
2023-03-05T20:36:37.989Z,9.05
2023-03-05T20:38:40.276Z,7.85
2023-03-05T20:40:42.349Z,11.45
2023-03-05T20:42:46.591Z,6.85
2023-03-05T20:44:48.616Z,8.60
2023-03-05T20:47:02.695Z,8.90
2023-03-05T20:49:08.717Z,9.82
2023-03-05T20:51:13.306Z,6.03
2023-03-05T20:53:16.346Z,6.47
2023-03-05T20:55:18.453Z,6.75
2023-03-05T20:57:22.557Z,9.15
2023-03-05T20:59:24.907Z,8.00
2023-03-05T21:01:28.071Z,8.23
2023-03-05T21:03:32.844Z,7.57
2023-03-05T21:05:36.005Z,7.53
2023-03-05T21:07:38.005Z,7.65
2023-03-05T21:09:40.235Z,7.97
2023-03-05T21:11:42.136Z,10.98
2023-03-05T21:13:44.762Z,10.38
2023-03-05T21:15:46.961Z,10.45
2023-03-05T21:17:49.325Z,9.70
2023-03-05T21:19:51.282Z,13.68
2023-03-05T21:21:53.225Z,8.38
2023-03-05T21:23:55.597Z,8.40
2023-03-05T21:25:57.481Z,8.38
2023-03-05T21:28:00.329Z,10.68
2023-03-05T21:30:02.361Z,7.88
2023-03-05T21:32:08.041Z,8.85
2023-03-05T21:34:11.386Z,8.57
2023-03-05T21:36:13.853Z,7.70
2023-03-05T21:38:27.822Z,10.00
2023-03-05T21:40:30.896Z,8.65
2023-03-05T21:42:33.123Z,6.25
2023-03-05T21:44:35.136Z,9.43
2023-03-05T21:46:37.549Z,7.50
2023-03-05T21:48:39.757Z,9.70
2023-03-05T21:50:44.421Z,8.52
2023-03-05T21:52:46.517Z,13.40
2023-03-05T21:54:54.770Z,8.65
2023-03-05T21:56:59.273Z,10.15
2023-03-05T21:59:04.941Z,9.80
2023-03-05T22:01:14.987Z,8.52
2023-03-05T22:03:19.776Z,8.37
2023-03-05T22:05:28.114Z,12.02
2023-03-05T22:07:33.327Z,8.63
2023-03-05T22:09:38.508Z,10.77
2023-03-05T22:11:42.785Z,12.18
2023-03-05T22:13:45.060Z,12.18
2023-03-05T22:15:49.925Z,10.50
2023-03-05T22:17:51.984Z,10.23
2023-03-05T22:19:57.914Z,8.82
2023-03-05T22:22:00.128Z,13.18
2023-03-05T22:24:02.139Z,10.82
2023-03-05T22:26:07.118Z,8.88
2023-03-05T22:28:10.937Z,10.50
2023-03-05T22:30:13.888Z,10.98
2023-03-05T22:32:15.904Z,9.98
2023-03-05T22:34:19.997Z,14.63
2023-03-05T22:36:22.023Z,18.25
2023-03-05T22:38:25.479Z,11.93
2023-03-05T22:40:27.464Z,10.88
2023-03-05T22:42:29.839Z,9.60
2023-03-05T22:44:32.040Z,10.65
2023-03-05T22:46:34.112Z,8.38
2023-03-05T22:48:36.098Z,10.07
2023-03-05T22:50:40.052Z,10.40
2023-03-05T22:52:42.721Z,9.73
2023-03-05T22:54:44.703Z,11.38
2023-03-05T22:56:46.607Z,11.50
2023-03-05T22:58:48.930Z,17.95
2023-03-05T23:00:50.921Z,11.98
2023-03-05T23:02:53.649Z,10.02
2023-03-05T23:05:00.649Z,9.93
2023-03-05T23:07:02.587Z,12.55
2023-03-05T23:09:04.720Z,12.60
2023-03-05T23:11:15.221Z,11.10
2023-03-05T23:13:32.782Z,9.40
2023-03-05T23:15:37.888Z,10.43
2023-03-05T23:17:40.044Z,12.30
2023-03-05T23:19:42.183Z,11.07
2023-03-05T23:21:48.981Z,12.07
2023-03-05T23:23:53.232Z,11.48
2023-03-05T23:25:55.251Z,10.70
2023-03-05T23:27:58.414Z,8.23
2023-03-05T23:30:16.452Z,12.35
2023-03-05T23:32:18.704Z,9.27
2023-03-05T23:34:20.729Z,10.52
2023-03-05T23:36:25.540Z,10.18
2023-03-05T23:38:29.741Z,11.32
2023-03-05T23:40:34.816Z,11.10
2023-03-05T23:42:38.454Z,12.23
2023-03-05T23:44:40.596Z,8.77
2023-03-05T23:46:42.932Z,9.50
2023-03-05T23:48:45.175Z,9.05
2023-03-05T23:50:48.990Z,9.90
2023-03-05T23:52:52.315Z,12.77
2023-03-05T23:54:55.301Z,10.35
2023-03-05T23:56:57.268Z,10.80
2023-03-05T23:59:00.762Z,11.20
